Time;durP1;ratioP1;P1;durP2;ratioP2;P2;SDS_P1;SDS_P2;PMS_P1;PMS_P2;Temp;Humidity;BMP_temperature;BMP_pressure;BME280_temperature;BME280_humidity;BME280_pressure;Samples;Min_cycle;Max_cycle;Signal;HPM_P1;HPM_P2
2023/06/24 00:01:17;;;;;;;6.90;4.60;;;;;;;21.65;60.21;99200.20;80730;1296;3051878;-67
2023/06/24 00:03:46;;;;;;;10.60;4.00;;;;;;;21.57;60.55;99207.08;82042;1295;3018166;-67
2023/06/24 00:06:18;;;;;;;9.20;3.80;;;;;;;21.47;60.90;99205.31;82002;1296;3011245;-67
2023/06/24 00:08:46;;;;;;;6.00;4.00;;;;;;;21.45;61.12;99199.01;80728;1296;3051161;-66
2023/06/24 00:11:13;;;;;;;5.70;4.20;;;;;;;21.56;60.49;99196.86;82020;1296;3011058;-66
2023/06/24 00:13:41;;;;;;;5.30;3.90;;;;;;;21.48;60.69;99197.95;81977;1295;3011290;-67
2023/06/24 00:16:09;;;;;;;6.80;3.90;;;;;;;21.36;61.25;99200.08;80756;1296;3050460;-65
2023/06/24 00:18:36;;;;;;;12.10;4.80;;;;;;;21.39;61.04;99210.01;82007;1296;3011524;-65
2023/06/24 00:21:04;;;;;;;6.30;4.10;;;;;;;21.39;60.99;99195.35;81971;1296;3011184;-65
2023/06/24 00:23:35;;;;;;;8.60;4.20;;;;;;;21.38;61.05;99193.70;80762;1295;3050849;-65
2023/06/24 00:26:01;;;;;;;8.00;3.70;;;;;;;21.38;60.78;99186.77;81990;1296;3011192;-67
2023/06/24 00:28:30;;;;;;;6.20;3.90;;;;;;;21.43;60.61;99190.63;81453;1299;3011473;-64
2023/06/24 00:30:57;;;;;;;8.30;4.00;;;;;;;21.36;61.03;99194.85;81984;1295;3018064;-67
2023/06/24 00:33:24;;;;;;;9.20;4.10;;;;;;;21.35;60.87;99191.67;81858;1296;3011259;-66
2023/06/24 00:35:51;;;;;;;7.90;4.20;;;;;;;21.32;60.88;99198.13;80728;1295;3027016;-66
2023/06/24 00:38:18;;;;;;;7.60;4.10;;;;;;;21.34;60.97;99182.75;81991;1296;3018425;-69
2023/06/24 00:40:46;;;;;;;6.90;4.50;;;;;;;21.34;60.76;99185.77;81973;1296;3011030;-66
2023/06/24 00:43:13;;;;;;;11.00;4.30;;;;;;;21.29;60.84;99179.36;80640;1300;3052529;-65
2023/06/24 00:45:40;;;;;;;8.00;4.40;;;;;;;21.35;60.66;99187.02;81970;1295;3018465;-65
2023/06/24 00:48:07;;;;;;;6.90;4.80;;;;;;;21.32;60.60;99180.55;81803;1297;3011297;-67
2023/06/24 00:50:37;;;;;;;9.90;4.80;;;;;;;21.31;60.75;99175.88;80593;1297;3025967;-65
2023/06/24 00:53:03;;;;;;;7.00;4.20;;;;;;;21.28;60.87;99173.95;81974;1295;3012617;-66
2023/06/24 00:55:30;;;;;;;5.80;4.30;;;;;;;21.23;61.18;99176.23;82017;1297;3011270;-65
2023/06/24 00:57:59;;;;;;;10.50;4.80;;;;;;;21.20;61.01;99174.27;80640;1300;3053143;-68
2023/06/24 01:00:26;;;;;;;7.10;3.90;;;;;;;21.13;61.48;99171.42;81973;1297;3013042;-66
2023/06/24 01:02:57;;;;;;;5.30;4.30;;;;;;;21.17;61.30;99185.80;81400;1296;3011238;-65
2023/06/24 01:05:24;;;;;;;8.30;5.00;;;;;;;21.21;61.13;99184.71;82042;1295;3013185;-65
2023/06/24 01:07:55;;;;;;;7.30;4.70;;;;;;;21.13;61.67;99168.29;81956;1295;3011111;-68
2023/06/24 01:10:23;;;;;;;8.30;4.90;;;;;;;21.12;61.70;99172.00;80603;1297;3050182;-67
2023/06/24 01:12:50;;;;;;;10.20;4.50;;;;;;;21.09;62.10;99159.41;82013;1297;3012524;-66
2023/06/24 01:15:17;;;;;;;8.90;4.30;;;;;;;21.13;61.78;99160.79;81935;1297;3011245;-65
2023/06/24 01:18:08;;;;;;;9.90;5.00;;;;;;;21.07;62.16;99156.95;80730;1295;3026008;-69
2023/06/24 01:20:40;;;;;;;8.10;4.40;;;;;;;20.98;62.29;99162.30;80723;1297;3057522;-65
2023/06/24 01:23:11;;;;;;;10.30;4.80;;;;;;;21.03;62.09;99159.92;82007;1295;3011072;-65
2023/06/24 01:26:01;;;;;;;8.40;4.70;;;;;;;21.10;61.95;99161.45;80677;1296;3052400;-67
2023/06/24 01:28:38;;;;;;;7.90;4.90;;;;;;;21.10;62.00;99151.63;80729;1296;3051512;-68
2023/06/24 01:31:23;;;;;;;7.70;4.50;;;;;;;21.04;62.29;99165.46;80749;1297;3053824;-65
2023/06/24 01:34:17;;;;;;;8.60;4.10;;;;;;;21.09;61.90;99175.64;80634;1300;3051876;-69
2023/06/24 01:36:59;;;;;;;7.80;4.80;;;;;;;21.02;62.16;99174.04;80617;1296;3070676;-68
2023/06/24 01:39:27;;;;;;;13.00;4.50;;;;;;;21.01;62.15;99172.23;80691;1297;3051020;-68
2023/06/24 01:42:00;;;;;;;10.00;4.40;;;;;;;20.99;62.25;99184.19;81829;1295;3018108;-66
2023/06/24 01:44:28;;;;;;;9.20;3.90;;;;;;;21.01;61.67;99181.90;80702;1296;3053402;-66
2023/06/24 01:46:55;;;;;;;7.40;4.40;;;;;;;20.98;62.08;99180.13;81838;1301;3012989;-67
2023/06/24 01:49:22;;;;;;;7.10;3.90;;;;;;;21.04;61.63;99174.55;81797;1300;3011608;-67
2023/06/24 01:51:51;;;;;;;8.50;4.40;;;;;;;21.01;61.61;99172.48;80524;1295;3069249;-67
2023/06/24 01:54:19;;;;;;;9.40;5.10;;;;;;;20.98;61.81;99174.04;81789;1297;3012639;-65
2023/06/24 01:56:47;;;;;;;10.40;4.50;;;;;;;20.95;61.93;99172.39;81781;1298;3011386;-67
2023/06/24 01:59:16;;;;;;;8.40;4.50;;;;;;;20.97;61.93;99170.42;80596;1295;3053032;-71
2023/06/24 02:01:43;;;;;;;8.80;4.70;;;;;;;20.94;61.91;99168.90;81795;1300;3013136;-66
2023/06/24 02:04:10;;;;;;;9.80;4.60;;;;;;;20.95;62.01;99168.60;81778;1303;3011388;-66
2023/06/24 02:06:39;;;;;;;10.10;5.50;;;;;;;20.95;61.95;99168.98;80750;1296;3068937;-64
2023/06/24 02:09:05;;;;;;;9.10;5.10;;;;;;;20.90;62.43;99167.90;81892;1298;3013190;-71
2023/06/24 02:11:32;;;;;;;8.20;4.50;;;;;;;20.87;62.30;99168.27;81825;1295;3011535;-69
2023/06/24 02:14:01;;;;;;;9.80;4.30;;;;;;;20.86;62.70;99167.10;80507;1296;3026494;-68
2023/06/24 02:16:27;;;;;;;7.90;4.60;;;;;;;20.87;62.65;99170.77;81912;1298;3011588;-68
2023/06/24 02:18:54;;;;;;;6.80;4.40;;;;;;;20.86;62.80;99162.45;81954;1298;3011224;-67
2023/06/24 02:21:23;;;;;;;8.00;4.50;;;;;;;20.84;63.06;99162.52;80649;1298;3067387;-66
2023/06/24 02:23:49;;;;;;;7.60;4.10;;;;;;;20.85;63.05;99162.53;81870;1301;3011329;-66
2023/06/24 02:26:16;;;;;;;7.10;4.40;;;;;;;20.88;63.07;99164.94;81922;1296;3011268;-65
2023/06/24 02:28:46;;;;;;;6.50;4.40;;;;;;;20.87;63.18;99169.70;80598;1295;3054329;-68
2023/06/24 02:31:12;;;;;;;6.40;4.60;;;;;;;20.78;63.40;99160.98;81886;1300;3011359;-65
2023/06/24 02:33:39;;;;;;;8.70;4.50;;;;;;;20.85;63.28;99154.96;82018;1295;3011174;-68
2023/06/24 02:36:07;;;;;;;9.40;4.20;;;;;;;20.82;63.50;99152.59;80616;1295;3026960;-66
2023/06/24 02:38:34;;;;;;;9.60;5.00;;;;;;;20.76;63.85;99154.13;81916;1297;3011387;-67
2023/06/24 02:41:04;;;;;;;8.00;4.90;;;;;;;20.76;63.86;99157.13;81910;1295;3011336;-64
2023/06/24 02:43:32;;;;;;;8.00;4.50;;;;;;;20.76;64.10;99148.95;80724;1296;3050988;-68
2023/06/24 02:46:00;;;;;;;9.70;4.60;;;;;;;20.75;64.44;99153.29;81884;1299;3013051;-66
2023/06/24 02:48:30;;;;;;;10.30;4.80;;;;;;;20.77;64.27;99155.83;81253;1300;3011326;-68
2023/06/24 02:50:58;;;;;;;9.60;4.70;;;;;;;20.69;64.77;99154.70;81894;1298;3018442;-67
2023/06/24 02:53:27;;;;;;;10.40;4.70;;;;;;;20.72;64.69;99158.46;81889;1298;3011729;-68
2023/06/24 02:55:55;;;;;;;13.70;5.10;;;;;;;20.73;64.88;99153.92;80476;1295;3057086;-65
2023/06/24 02:58:23;;;;;;;9.70;5.10;;;;;;;20.63;65.34;99161.89;81788;1296;3011285;-68
2023/06/24 03:01:06;;;;;;;5.50;4.50;;;;;;;20.67;65.32;99155.43;80615;1300;3049878;-65
2023/06/24 03:03:40;;;;;;;10.50;5.00;;;;;;;20.55;66.16;99160.71;80716;1301;3052470;-66
2023/06/24 03:06:12;;;;;;;9.10;5.10;;;;;;;20.46;66.76;99159.27;81866;1298;3011485;-67
2023/06/24 03:08:41;;;;;;;7.70;4.80;;;;;;;20.48;66.95;99167.78;80505;1297;3068389;-66
2023/06/24 03:11:14;;;;;;;6.50;4.90;;;;;;;20.55;66.50;99174.65;81885;1298;3011834;-70
2023/06/24 03:13:42;;;;;;;6.70;4.90;;;;;;;20.59;66.63;99175.30;80594;1298;3048937;-68
2023/06/24 03:16:19;;;;;;;8.60;5.20;;;;;;;20.55;66.85;99173.61;80612;1298;3052713;-67
2023/06/24 03:18:59;;;;;;;10.10;5.10;;;;;;;20.61;66.70;99176.27;80528;1297;3049438;-67
2023/06/24 03:21:28;;;;;;;6.10;5.00;;;;;;;20.54;67.27;99176.00;81893;1295;3011369;-67
2023/06/24 03:23:59;;;;;;;6.40;4.50;;;;;;;20.57;67.30;99179.39;80643;1300;3027119;-68
2023/06/24 03:26:34;;;;;;;7.20;4.90;;;;;;;20.68;66.84;99174.20;81942;1298;3012315;-63
2023/06/24 03:29:01;;;;;;;5.90;4.80;;;;;;;20.77;66.24;99176.92;80652;1296;3057284;-66
2023/06/24 03:31:29;;;;;;;7.20;5.00;;;;;;;20.84;66.26;99179.28;81900;1300;3011459;-66
2023/06/24 03:33:56;;;;;;;7.30;4.50;;;;;;;20.93;66.01;99183.39;81900;1297;3011140;-67
2023/06/24 03:36:24;;;;;;;7.90;5.50;;;;;;;21.04;65.19;99185.16;80670;1298;3052960;-66
2023/06/24 03:38:51;;;;;;;6.50;4.70;;;;;;;21.07;65.41;99181.19;81992;1298;3011185;-67
2023/06/24 03:41:18;;;;;;;6.90;4.60;;;;;;;21.12;65.32;99180.32;81885;1296;3011575;-67
2023/06/24 03:43:46;;;;;;;10.10;5.00;;;;;;;21.11;65.28;99187.69;80610;1295;3025637;-66
2023/06/24 03:46:13;;;;;;;7.10;4.80;;;;;;;21.17;65.04;99185.78;81902;1298;3012693;-67
2023/06/24 03:48:40;;;;;;;6.90;4.80;;;;;;;21.15;65.34;99184.09;81958;1295;3011354;-65
2023/06/24 03:51:08;;;;;;;9.00;5.20;;;;;;;21.21;65.13;99186.25;80632;1301;3053104;-65
2023/06/24 03:53:37;;;;;;;11.30;5.20;;;;;;;21.19;65.27;99186.69;81914;1300;3013021;-66
2023/06/24 03:56:03;;;;;;;7.30;4.20;;;;;;;21.18;65.45;99181.57;81901;1297;3011365;-67
2023/06/24 03:58:32;;;;;;;7.10;4.50;;;;;;;21.21;65.33;99183.00;80699;1295;3056958;-67
2023/06/24 04:01:02;;;;;;;11.40;5.10;;;;;;;21.20;65.35;99185.71;81920;1296;3018853;-66
2023/06/24 04:03:31;;;;;;;13.00;5.50;;;;;;;21.18;65.56;99189.42;81322;1295;3011191;-66
2023/06/24 04:06:01;;;;;;;10.20;4.70;;;;;;;21.23;65.51;99186.16;81883;1297;3011213;-68
2023/06/24 04:08:32;;;;;;;10.30;5.30;;;;;;;21.24;65.58;99184.46;80618;1300;3051206;-67
2023/06/24 04:11:02;;;;;;;7.70;4.90;;;;;;;21.23;65.64;99189.96;81854;1298;3011294;-67
2023/06/24 04:13:30;;;;;;;10.50;4.80;;;;;;;21.32;65.23;99195.45;80728;1298;3026411;-66
2023/06/24 04:15:56;;;;;;;10.60;4.80;;;;;;;21.34;65.32;99190.77;81879;1298;3012915;-68
2023/06/24 04:18:23;;;;;;;7.20;4.60;;;;;;;21.31;65.49;99192.30;81991;1296;3011115;-67
2023/06/24 04:20:51;;;;;;;9.80;5.00;;;;;;;21.37;65.51;99202.20;80651;1295;3028349;-67
2023/06/24 04:23:18;;;;;;;5.60;4.40;;;;;;;21.42;65.14;99205.15;81869;1302;3012732;-68
2023/06/24 04:25:44;;;;;;;7.70;4.60;;;;;;;21.38;65.55;99201.17;81907;1297;3011080;-68
2023/06/24 04:28:12;;;;;;;12.70;4.80;;;;;;;21.46;65.18;99197.39;80709;1295;3026319;-69
2023/06/24 04:30:39;;;;;;;6.80;4.80;;;;;;;21.56;65.25;99192.79;81931;1297;3012675;-67
2023/06/24 04:33:06;;;;;;;5.40;4.40;;;;;;;21.61;65.12;99205.77;81961;1294;3011450;-67
2023/06/24 04:35:34;;;;;;;8.50;4.40;;;;;;;21.71;64.81;99200.41;80732;1295;3052548;-67
2023/06/24 04:38:01;;;;;;;7.90;4.90;;;;;;;21.82;64.51;99200.41;82030;1301;3017992;-68
2023/06/24 04:40:28;;;;;;;5.70;4.40;;;;;;;21.91;64.47;99198.67;81903;1297;3011197;-67
2023/06/24 04:42:55;;;;;;;9.80;5.10;;;;;;;21.97;64.27;99191.66;80749;1296;3025872;-68
2023/06/24 04:45:22;;;;;;;11.80;4.80;;;;;;;22.11;63.70;99200.02;82059;1295;3018416;-67
2023/06/24 04:47:49;;;;;;;11.90;4.70;;;;;;;22.15;63.67;99192.85;81989;1295;3011328;-67
2023/06/24 04:50:17;;;;;;;9.80;4.70;;;;;;;22.19;63.71;99189.10;80725;1295;3025819;-67
2023/06/24 04:52:44;;;;;;;7.50;4.40;;;;;;;22.30;63.40;99188.45;82014;1295;3011272;-68
2023/06/24 04:55:11;;;;;;;10.20;4.20;;;;;;;22.38;63.54;99192.02;82020;1299;3011086;-67
2023/06/24 04:57:39;;;;;;;6.50;4.30;;;;;;;22.42;63.47;99190.22;80715;1298;3066373;-69
2023/06/24 05:00:06;;;;;;;7.20;4.20;;;;;;;22.55;63.01;99186.11;82007;1298;3012972;-67
2023/06/24 05:02:33;;;;;;;7.00;4.30;;;;;;;22.60;62.75;99193.39;82044;1295;3011484;-66
2023/06/24 05:05:01;;;;;;;8.40;4.60;;;;;;;22.59;63.16;99196.41;80733;1298;3052960;-68
2023/06/24 05:07:27;;;;;;;10.00;4.80;;;;;;;22.63;63.18;99182.48;82032;1295;3012068;-67
2023/06/24 05:09:54;;;;;;;8.80;4.50;;;;;;;22.71;63.03;99187.98;81961;1297;3011461;-71
2023/06/24 05:12:21;;;;;;;9.30;4.30;;;;;;;22.80;62.56;99186.48;80744;1296;3026161;-69
2023/06/24 05:14:54;;;;;;;8.40;5.10;;;;;;;22.79;62.66;99191.13;81986;1296;3012552;-68
2023/06/24 05:17:22;;;;;;;9.80;4.60;;;;;;;22.78;62.90;99177.77;80694;1297;3049424;-67
2023/06/24 05:19:48;;;;;;;7.50;4.90;;;;;;;22.90;62.56;99177.64;82004;1296;3013256;-69
2023/06/24 05:22:15;;;;;;;8.90;4.80;;;;;;;22.88;62.84;99176.45;81978;1296;3011205;-69
2023/06/24 05:24:44;;;;;;;11.70;4.70;;;;;;;22.93;62.46;99191.08;80691;1298;3050843;-68
2023/06/24 05:27:10;;;;;;;8.40;5.20;;;;;;;23.05;62.38;99181.55;82029;1296;3018828;-69
2023/06/24 05:29:37;;;;;;;9.30;4.60;;;;;;;23.08;62.31;99185.88;81997;1295;3011463;-70
2023/06/24 05:32:05;;;;;;;7.80;4.50;;;;;;;23.10;62.26;99183.30;80695;1298;3026273;-67
2023/06/24 05:34:33;;;;;;;11.30;5.00;;;;;;;23.19;62.08;99182.14;81963;1296;3018660;-67
2023/06/24 05:37:00;;;;;;;6.50;4.70;;;;;;;23.21;62.34;99165.27;81951;1299;3011163;-67
2023/06/24 05:39:27;;;;;;;7.00;4.80;;;;;;;23.31;62.69;99166.91;80818;1296;3052810;-66
2023/06/24 05:41:54;;;;;;;14.10;5.40;;;;;;;23.47;62.22;99167.88;81989;1301;3018591;-66
2023/06/24 05:44:20;;;;;;;10.70;4.50;;;;;;;23.61;61.84;99169.11;81953;1298;3011273;-64
2023/06/24 05:46:49;;;;;;;7.00;4.70;;;;;;;23.71;61.56;99167.60;80719;1295;3027615;-66
2023/06/24 05:49:15;;;;;;;8.10;5.00;;;;;;;23.78;61.40;99169.05;82060;1295;3018741;-66
2023/06/24 05:51:42;;;;;;;8.40;4.80;;;;;;;23.78;60.74;99172.77;81955;1301;3011851;-65
2023/06/24 05:54:09;;;;;;;5.90;4.40;;;;;;;23.78;60.90;99180.58;80680;1298;3027461;-66
2023/06/24 05:56:37;;;;;;;12.50;5.60;;;;;;;23.82;60.77;99179.26;82008;1295;3013160;-68
2023/06/24 05:59:03;;;;;;;7.00;4.90;;;;;;;23.90;60.85;99179.34;82005;1296;3011326;-67
2023/06/24 06:01:31;;;;;;;8.00;4.90;;;;;;;24.00;60.68;99181.00;80776;1300;3026529;-66
2023/06/24 06:03:58;;;;;;;7.00;5.10;;;;;;;24.04;60.34;99185.71;81964;1295;3019296;-70
2023/06/24 06:06:24;;;;;;;7.70;4.80;;;;;;;23.97;60.49;99184.77;81998;1296;3011213;-69
2023/06/24 06:08:52;;;;;;;6.90;4.80;;;;;;;24.04;60.95;99182.90;80737;1301;3026652;-67
2023/06/24 06:11:19;;;;;;;8.30;5.40;;;;;;;24.17;60.75;99180.92;82037;1298;3018482;-67
2023/06/24 06:13:45;;;;;;;10.40;5.10;;;;;;;24.32;60.63;99179.71;82006;1295;3011465;-68
2023/06/24 06:16:13;;;;;;;9.90;4.80;;;;;;;24.43;60.10;99187.98;80743;1295;3027319;-66
2023/06/24 06:18:40;;;;;;;13.70;5.50;;;;;;;24.56;59.69;99185.88;81991;1299;3012832;-69
2023/06/24 06:21:06;;;;;;;8.70;5.50;;;;;;;24.56;59.69;99182.04;82035;1295;3011225;-67
2023/06/24 06:23:34;;;;;;;10.20;5.20;;;;;;;24.59;59.72;99186.88;80714;1298;3026669;-68
2023/06/24 06:26:00;;;;;;;7.60;4.80;;;;;;;24.67;59.73;99192.42;82044;1296;3018406;-68
2023/06/24 06:28:27;;;;;;;7.20;4.70;;;;;;;24.76;59.47;99188.75;81877;1301;3011412;-67
2023/06/24 06:30:56;;;;;;;7.30;4.70;;;;;;;24.89;59.33;99183.91;80735;1295;3025893;-67
2023/06/24 06:33:24;;;;;;;15.10;5.40;;;;;;;25.08;59.11;99186.05;81999;1296;3011165;-66
2023/06/24 06:35:53;;;;;;;8.70;4.20;;;;;;;25.20;58.61;99177.92;80009;1300;5632744;-67
2023/06/24 06:38:21;;;;;;;7.90;5.00;;;;;;;25.33;58.36;99180.42;82013;1298;3012502;-66
2023/06/24 06:40:47;;;;;;;10.40;6.20;;;;;;;25.37;58.12;99180.56;82005;1299;3011247;-67
2023/06/24 06:43:15;;;;;;;8.20;5.80;;;;;;;25.32;57.93;99175.50;80705;1300;3051649;-69
2023/06/24 06:45:45;;;;;;;7.40;5.40;;;;;;;25.33;58.14;99180.19;81966;1301;3017983;-71
2023/06/24 06:48:14;;;;;;;9.30;6.00;;;;;;;25.40;57.95;99172.96;81446;1296;3011443;-68
2023/06/24 06:50:40;;;;;;;9.10;5.30;;;;;;;25.43;58.21;99174.14;81997;1297;3012546;-66
2023/06/24 06:53:07;;;;;;;7.20;5.30;;;;;;;25.49;57.76;99170.63;81993;1300;3011172;-69
2023/06/24 06:55:36;;;;;;;8.70;5.70;;;;;;;25.64;57.87;99181.35;80720;1297;3026335;-68
2023/06/24 06:58:02;;;;;;;10.30;5.40;;;;;;;25.83;57.44;99177.80;82049;1299;3011182;-68
2023/06/24 07:00:29;;;;;;;7.20;5.50;;;;;;;26.03;56.91;99178.58;81999;1300;3011396;-69
2023/06/24 07:02:57;;;;;;;16.40;5.70;;;;;;;26.10;56.49;99181.52;80734;1296;3049189;-68
2023/06/24 07:05:23;;;;;;;13.30;6.00;;;;;;;26.05;56.19;99182.89;82015;1296;3018178;-71
2023/06/24 07:07:50;;;;;;;6.50;5.20;;;;;;;25.95;56.73;99181.83;82017;1296;3012883;-69
2023/06/24 07:10:18;;;;;;;8.20;5.40;;;;;;;26.04;56.99;99180.20;80741;1300;3017545;-69
2023/06/24 07:12:46;;;;;;;8.80;5.40;;;;;;;26.12;56.73;99176.42;82014;1298;3012507;-67
2023/06/24 07:15:19;;;;;;;12.50;5.90;;;;;;;26.17;56.54;99175.20;81524;1296;3011400;-69
2023/06/24 07:17:45;;;;;;;8.10;5.60;;;;;;;26.31;56.53;99175.33;82008;1295;3011401;-68
2023/06/24 07:20:14;;;;;;;10.70;5.50;;;;;;;26.40;56.57;99172.41;81494;1295;3011203;-65
2023/06/24 07:22:41;;;;;;;14.90;6.00;;;;;;;26.51;56.49;99170.73;81991;1296;3011246;-67
2023/06/24 07:25:09;;;;;;;10.50;5.90;;;;;;;26.58;56.20;99175.89;82000;1300;3011252;-66
2023/06/24 07:27:37;;;;;;;8.50;5.40;;;;;;;26.63;56.11;99173.91;80757;1297;3051317;-67
2023/06/24 07:30:05;;;;;;;7.30;5.80;;;;;;;26.64;55.46;99173.62;81986;1297;3013194;-68
2023/06/24 07:32:31;;;;;;;10.40;5.40;;;;;;;26.72;55.57;99171.61;81979;1296;3011235;-67
2023/06/24 07:34:59;;;;;;;7.60;5.70;;;;;;;26.86;55.15;99168.45;80746;1296;3049868;-69
2023/06/24 07:37:26;;;;;;;8.60;5.60;;;;;;;27.00;54.89;99166.34;81987;1298;3018510;-68
2023/06/24 07:39:52;;;;;;;8.50;5.20;;;;;;;27.06;55.08;99163.38;81989;1295;3011370;-68
2023/06/24 07:42:20;;;;;;;6.40;5.40;;;;;;;27.21;54.46;99163.33;80749;1300;3025688;-64
2023/06/24 07:44:47;;;;;;;7.80;5.40;;;;;;;27.28;53.54;99168.56;82072;1295;3018452;-65
2023/06/24 07:47:16;;;;;;;12.30;5.20;;;;;;;27.39;53.65;99172.46;82036;1295;3011016;-65
2023/06/24 07:49:44;;;;;;;12.30;5.60;;;;;;;27.38;53.62;99167.95;80726;1295;3048372;-65
2023/06/24 07:52:10;;;;;;;7.80;5.40;;;;;;;27.36;53.87;99170.13;81984;1296;3012601;-66
2023/06/24 07:54:37;;;;;;;6.60;5.20;;;;;;;27.47;53.69;99170.09;81980;1296;3011226;-71
2023/06/24 07:57:04;;;;;;;8.50;5.00;;;;;;;27.53;53.94;99170.91;80741;1298;3025883;-69
2023/06/24 07:59:31;;;;;;;7.40;5.30;;;;;;;27.51;53.76;99173.86;81992;1296;3018764;-65
2023/06/24 08:01:57;;;;;;;8.20;5.30;;;;;;;27.58;53.45;99177.08;81994;1296;3011443;-68
2023/06/24 08:04:25;;;;;;;8.20;5.60;;;;;;;27.65;53.13;99170.51;80788;1296;3025715;-67
2023/06/24 08:06:52;;;;;;;8.90;5.70;;;;;;;27.76;53.25;99167.98;81914;1297;3019109;-66
2023/06/24 08:09:19;;;;;;;8.40;5.40;;;;;;;27.73;53.08;99174.80;81862;1295;3011332;-67
2023/06/24 08:11:48;;;;;;;12.70;5.70;;;;;;;27.86;52.94;99171.60;80699;1297;3051556;-65
2023/06/24 08:14:15;;;;;;;9.50;5.90;;;;;;;28.01;52.39;99174.98;81985;1298;3018502;-66
2023/06/24 08:16:41;;;;;;;9.30;5.60;;;;;;;28.05;51.94;99180.73;81942;1301;3011160;-68
2023/06/24 08:19:09;;;;;;;10.20;6.40;;;;;;;28.05;52.17;99182.04;80731;1296;3025958;-66
2023/06/24 08:21:37;;;;;;;8.70;5.30;;;;;;;28.20;52.00;99178.42;82017;1295;3012490;-67
2023/06/24 08:24:05;;;;;;;8.90;5.10;;;;;;;28.28;51.56;99177.19;81902;1301;3011360;-67
2023/06/24 08:26:32;;;;;;;11.60;5.60;;;;;;;28.33;51.58;99180.55;80731;1297;3051756;-69
2023/06/24 08:28:59;;;;;;;10.40;5.70;;;;;;;28.31;51.31;99177.88;81989;1297;3012793;-65
2023/06/24 08:31:26;;;;;;;10.40;5.30;;;;;;;28.42;51.04;99168.21;81991;1296;3011352;-68
2023/06/24 08:33:54;;;;;;;10.30;6.00;;;;;;;28.56;51.01;99173.44;80746;1295;3049438;-68
2023/06/24 08:36:21;;;;;;;9.90;5.70;;;;;;;28.70;51.57;99173.01;81981;1295;3013277;-66
2023/06/24 08:38:48;;;;;;;8.80;6.00;;;;;;;28.78;51.21;99170.00;81974;1299;3011225;-66
2023/06/24 08:41:15;;;;;;;9.10;6.50;;;;;;;28.73;50.02;99167.88;80696;1301;3025971;-67
2023/06/24 08:43:43;;;;;;;8.70;6.00;;;;;;;28.81;49.93;99165.27;81996;1298;3012609;-66
2023/06/24 08:46:09;;;;;;;10.50;5.60;;;;;;;28.88;49.26;99167.13;82004;1295;3011703;-66
2023/06/24 08:48:40;;;;;;;8.70;5.90;;;;;;;28.93;48.91;99168.05;80610;1296;3049124;-65
2023/06/24 08:51:08;;;;;;;6.70;6.00;;;;;;;29.10;48.87;99161.62;81969;1295;3012628;-66
2023/06/24 08:53:37;;;;;;;10.40;5.50;;;;;;;29.24;48.31;99153.30;81355;1295;3011519;-68
2023/06/24 08:56:04;;;;;;;7.00;5.60;;;;;;;29.35;48.12;99152.89;81977;1297;3011209;-65
2023/06/24 08:58:30;;;;;;;9.40;5.60;;;;;;;29.53;47.68;99153.79;81990;1297;3011342;-67
2023/06/24 09:00:58;;;;;;;9.60;5.20;;;;;;;29.67;47.28;99156.17;80703;1298;3050934;-65
2023/06/24 09:03:25;;;;;;;7.70;5.50;;;;;;;29.87;47.39;99159.66;82011;1301;3013216;-64
2023/06/24 09:05:52;;;;;;;8.30;6.00;;;;;;;29.76;47.14;99164.27;81983;1296;3011435;-67
2023/06/24 09:08:21;;;;;;;7.80;5.90;;;;;;;29.59;47.04;99159.34;80686;1298;3027605;-65
2023/06/24 09:10:53;;;;;;;10.00;5.70;;;;;;;29.43;47.33;99157.39;81905;1296;3011440;-67
2023/06/24 09:13:23;;;;;;;8.70;5.60;;;;;;;29.49;47.40;99154.41;80722;1297;3052655;-65
2023/06/24 09:15:49;;;;;;;7.90;5.40;;;;;;;29.66;46.46;99153.98;81827;1300;3011413;-65
2023/06/24 09:18:17;;;;;;;5.60;5.10;;;;;;;29.80;45.19;99156.11;81977;1296;3011329;-67
2023/06/24 09:20:45;;;;;;;6.30;5.50;;;;;;;29.97;44.53;99161.89;80717;1301;3048457;-64
2023/06/24 09:23:11;;;;;;;8.60;6.00;;;;;;;30.01;45.15;99153.49;82029;1295;3012342;-65
2023/06/24 09:25:38;;;;;;;7.10;5.80;;;;;;;30.13;45.47;99151.80;81935;1300;3012465;-64
2023/06/24 09:28:06;;;;;;;12.20;5.90;;;;;;;30.17;44.57;99153.45;80717;1296;3043816;-63
2023/06/24 09:30:33;;;;;;;8.10;5.90;;;;;;;30.14;44.28;99153.58;82015;1296;3012317;-65
2023/06/24 09:32:59;;;;;;;8.90;5.90;;;;;;;30.34;44.41;99154.47;81989;1296;3012565;-65
2023/06/24 09:35:27;;;;;;;8.00;6.20;;;;;;;30.55;44.20;99150.56;80711;1295;3017849;-66
2023/06/24 09:37:59;;;;;;;8.50;6.20;;;;;;;30.64;43.57;99148.10;82001;1296;3012617;-66
2023/06/24 09:40:27;;;;;;;7.60;6.50;;;;;;;30.77;42.43;99149.64;80744;1298;3043570;-65
2023/06/24 09:43:00;;;;;;;8.10;5.90;;;;;;;30.92;41.99;99154.83;81905;1298;3011400;-64
2023/06/24 09:45:28;;;;;;;7.30;5.30;;;;;;;30.89;41.54;99147.48;80742;1297;3053638;-64
2023/06/24 09:47:55;;;;;;;7.00;5.80;;;;;;;30.98;40.32;99160.19;82016;1295;3012522;-64
2023/06/24 09:50:22;;;;;;;6.80;5.40;;;;;;;30.89;39.97;99161.60;81986;1298;3011452;-66
2023/06/24 09:52:50;;;;;;;8.60;5.60;;;;;;;30.81;40.58;99159.16;80762;1295;3025404;-63
2023/06/24 09:55:17;;;;;;;9.60;4.90;;;;;;;30.91;40.67;99158.46;82071;1297;3012570;-64
2023/06/24 09:57:45;;;;;;;11.90;5.70;;;;;;;31.10;40.43;99142.11;81990;1295;3011578;-64
2023/06/24 10:00:15;;;;;;;11.60;6.10;;;;;;;31.24;40.46;99141.12;80767;1295;3050611;-64
2023/06/24 10:02:42;;;;;;;10.50;6.40;;;;;;;31.25;40.32;99139.59;82016;1295;3013201;-64
2023/06/24 10:05:08;;;;;;;11.00;6.20;;;;;;;31.24;40.29;99140.32;81894;1296;3011394;-65
2023/06/24 10:07:36;;;;;;;7.90;6.10;;;;;;;31.10;40.87;99133.27;80639;1295;3051075;-64
2023/06/24 10:10:03;;;;;;;9.90;6.10;;;;;;;31.21;40.59;99128.73;82067;1295;3012407;-66
2023/06/24 10:12:31;;;;;;;9.60;6.40;;;;;;;31.35;40.33;99130.58;82015;1295;3011346;-65
2023/06/24 10:14:59;;;;;;;7.50;6.30;;;;;;;31.43;40.24;99121.63;80658;1295;3050972;-65
2023/06/24 10:17:26;;;;;;;8.20;5.20;;;;;;;31.79;39.80;99123.80;81959;1296;3012866;-64
2023/06/24 10:19:55;;;;;;;8.70;6.00;;;;;;;31.84;39.72;99127.33;81996;1295;3011293;-66
2023/06/24 10:22:28;;;;;;;8.40;6.10;;;;;;;31.70;40.08;99131.87;80783;1295;3049401;-62
2023/06/24 10:24:56;;;;;;;8.40;5.50;;;;;;;31.59;40.60;99117.25;82004;1296;3011158;-62
2023/06/24 10:27:26;;;;;;;7.50;6.30;;;;;;;31.49;41.16;99110.13;80650;1297;3052555;-69
2023/06/24 10:29:53;;;;;;;7.30;5.80;;;;;;;31.60;40.85;99106.80;81934;1297;3011369;-68
2023/06/24 10:32:21;;;;;;;7.20;5.70;;;;;;;31.79;40.83;99104.64;81927;1295;3011452;-69
2023/06/24 10:34:55;;;;;;;9.40;6.80;;;;;;;31.86;40.56;99108.16;80665;1295;3049412;-69
2023/06/24 10:37:24;;;;;;;12.10;7.10;;;;;;;31.52;40.66;99111.40;81994;1295;3011406;-68
2023/06/24 10:39:54;;;;;;;13.50;6.20;;;;;;;31.51;40.68;99103.36;80730;1295;3048684;-68
2023/06/24 10:42:23;;;;;;;7.60;6.20;;;;;;;31.48;40.46;99105.17;82004;1295;3012628;-68
2023/06/24 10:44:51;;;;;;;11.80;6.60;;;;;;;31.55;40.69;99102.50;80763;1299;3053669;-69
2023/06/24 10:47:18;;;;;;;9.00;6.40;;;;;;;31.63;40.55;99099.77;82018;1298;3011429;-70
2023/06/24 10:49:45;;;;;;;12.70;6.50;;;;;;;31.60;40.16;99109.29;81994;1296;3011450;-65
2023/06/24 10:52:13;;;;;;;10.00;6.60;;;;;;;31.36;39.95;99115.13;80739;1295;3026666;-67
2023/06/24 10:54:40;;;;;;;9.50;6.00;;;;;;;31.36;40.48;99115.89;82011;1295;3013029;-68
2023/06/24 10:57:07;;;;;;;8.80;5.80;;;;;;;31.20;40.00;99111.59;81991;1295;3011144;-67
2023/06/24 10:59:43;;;;;;;8.90;5.80;;;;;;;31.02;40.41;99116.41;80752;1298;3052344;-68
2023/06/24 11:02:10;;;;;;;8.60;7.10;;;;;;;30.93;41.37;99106.33;81897;1295;3011477;-66
2023/06/24 11:04:51;;;;;;;10.30;6.50;;;;;;;30.79;41.66;99107.30;80665;1295;3051346;-68
2023/06/24 11:07:20;;;;;;;8.20;6.40;;;;;;;30.79;41.85;99105.14;80759;1295;3056995;-66
2023/06/24 11:09:50;;;;;;;9.10;6.10;;;;;;;30.84;41.83;99102.86;82035;1295;3012721;-67
2023/06/24 11:12:19;;;;;;;10.20;6.50;;;;;;;31.16;41.43;99098.14;80741;1295;3050065;-67
2023/06/24 11:14:46;;;;;;;9.60;6.20;;;;;;;31.31;40.42;99102.41;82021;1297;3012496;-68
2023/06/24 11:17:13;;;;;;;8.20;5.70;;;;;;;31.43;40.36;99096.88;82026;1297;3011160;-65
2023/06/24 11:19:41;;;;;;;8.80;5.60;;;;;;;31.76;39.71;99096.22;80734;1295;3051671;-66